createdAt,value
2023-04-05T00:03:25.950Z,2.07
2023-04-05T00:08:32.153Z,1.77
2023-04-05T00:13:37.917Z,1.77
2023-04-05T00:18:46.252Z,1.80
2023-04-05T00:23:54.057Z,2.43
2023-04-05T00:28:59.549Z,1.70
2023-04-05T00:34:06.903Z,2.13
2023-04-05T00:39:12.414Z,1.93
2023-04-05T00:44:18.086Z,2.53
2023-04-05T00:49:23.657Z,2.63
2023-04-05T00:54:30.827Z,1.90
2023-04-05T00:59:36.412Z,2.47
2023-04-05T01:04:45.214Z,2.03
2023-04-05T01:09:59.730Z,2.07
2023-04-05T01:15:05.679Z,1.63
2023-04-05T01:20:13.097Z,2.40
2023-04-05T01:25:37.228Z,1.53
2023-04-05T01:30:45.988Z,2.40
2023-04-05T01:36:11.025Z,2.10
2023-04-05T01:41:17.258Z,1.90
2023-04-05T01:46:24.557Z,2.10
2023-04-05T01:51:31.209Z,1.80
2023-04-05T01:56:38.440Z,1.80
2023-04-05T02:01:43.885Z,2.23
2023-04-05T02:06:49.332Z,1.97
2023-04-05T02:11:54.749Z,1.80
2023-04-05T02:17:01.825Z,2.20
2023-04-05T02:22:08.293Z,2.53
2023-04-05T02:27:13.793Z,2.20
2023-04-05T02:32:19.312Z,2.30
2023-04-05T02:37:26.278Z,2.33
2023-04-05T02:42:31.760Z,1.83
2023-04-05T02:47:37.435Z,1.70
2023-04-05T02:52:43.178Z,1.57
2023-04-05T02:57:48.752Z,2.10
2023-04-05T03:02:56.886Z,1.70
2023-04-05T03:08:02.512Z,1.53
2023-04-05T03:13:11.922Z,1.43
2023-04-05T03:18:20.262Z,1.83
2023-04-05T03:23:30.976Z,1.30
2023-04-05T03:28:36.770Z,1.37
2023-04-05T03:33:44.437Z,1.40
2023-04-05T03:38:51.889Z,1.57
2023-04-05T03:43:59.472Z,2.10
2023-04-05T03:49:05.155Z,2.13
2023-04-05T03:54:10.567Z,1.83
2023-04-05T03:59:16.898Z,2.13
2023-04-05T04:04:22.978Z,2.40
2023-04-05T04:09:29.921Z,2.70
2023-04-05T04:14:37.154Z,2.87
2023-04-05T04:20:00.875Z,3.00
2023-04-05T04:25:20.633Z,1.93
2023-04-05T04:30:35.093Z,1.80
2023-04-05T04:35:47.007Z,1.77
2023-04-05T04:41:12.797Z,2.30
2023-04-05T04:46:24.416Z,2.07
2023-04-05T04:51:35.641Z,1.50
2023-04-05T04:56:41.147Z,1.50
2023-04-05T05:01:47.046Z,1.37
2023-04-05T05:06:54.960Z,2.00
2023-04-05T05:12:01.907Z,1.53
2023-04-05T05:17:08.803Z,2.30
2023-04-05T05:22:14.316Z,1.97
2023-04-05T05:27:19.826Z,1.70
2023-04-05T05:32:25.476Z,1.93
2023-04-05T05:37:32.951Z,1.60
2023-04-05T05:42:38.448Z,1.87
2023-04-05T05:47:44.019Z,2.23
2023-04-05T05:52:49.582Z,1.80
2023-04-05T05:57:55.362Z,1.70
2023-04-05T06:03:04.919Z,2.30
2023-04-05T06:08:10.678Z,2.00
2023-04-05T06:13:16.354Z,1.73
2023-04-05T06:18:22.246Z,1.67
2023-04-05T06:23:27.727Z,1.73
2023-04-05T06:28:33.332Z,1.00
2023-04-05T06:33:38.759Z,1.10
2023-04-05T06:38:44.338Z,1.10
2023-04-05T06:43:49.868Z,1.20
2023-04-05T06:48:55.706Z,1.10
2023-04-05T06:54:01.225Z,1.80
2023-04-05T06:59:06.764Z,1.10
2023-04-05T07:04:12.396Z,1.10
2023-04-05T07:09:18.101Z,1.40
2023-04-05T07:14:24.171Z,1.60
2023-04-05T07:19:29.780Z,1.50
2023-04-05T07:24:35.724Z,1.37
2023-04-05T07:29:44.564Z,1.30
2023-04-05T07:34:51.051Z,1.70
2023-04-05T07:39:58.493Z,1.70
2023-04-05T07:45:04.107Z,1.50
2023-04-05T07:50:12.203Z,1.13
2023-04-05T07:55:17.945Z,1.20
2023-04-05T08:00:23.965Z,1.20
2023-04-05T08:05:29.816Z,1.00
2023-04-05T08:10:36.781Z,1.53
2023-04-05T08:15:42.314Z,0.67
2023-04-05T08:20:52.969Z,1.20
2023-04-05T08:25:58.638Z,0.97
2023-04-05T08:31:04.077Z,0.73
2023-04-05T08:36:11.021Z,1.47
2023-04-05T08:41:21.945Z,1.03
2023-04-05T08:46:30.913Z,1.00
2023-04-05T08:51:39.487Z,1.10
2023-04-05T08:56:49.186Z,1.37
2023-04-05T09:01:56.149Z,1.50
2023-04-05T09:07:04.525Z,1.30
2023-04-05T09:12:10.700Z,1.30
2023-04-05T09:17:21.054Z,0.90
2023-04-05T09:22:26.557Z,0.87
2023-04-05T09:27:32.672Z,0.90
2023-04-05T09:32:38.409Z,1.30
2023-04-05T09:37:47.042Z,0.90
2023-04-05T09:42:54.242Z,1.00
2023-04-05T09:48:00.084Z,0.77
2023-04-05T09:53:15.091Z,0.90
2023-04-05T09:58:22.321Z,0.73
2023-04-05T10:03:28.297Z,0.90
2023-04-05T10:08:34.080Z,0.93
2023-04-05T10:13:41.498Z,1.00
2023-04-05T10:18:49.995Z,0.70
2023-04-05T10:24:04.304Z,1.10
2023-04-05T10:29:13.696Z,1.00
2023-04-05T10:34:34.370Z,0.70
2023-04-05T10:39:45.889Z,0.80
2023-04-05T10:45:00.299Z,1.13
2023-04-05T10:50:10.052Z,0.83
2023-04-05T10:55:18.218Z,0.80
2023-04-05T11:00:24.824Z,0.80
2023-04-05T11:05:33.268Z,0.90
2023-04-05T11:10:43.028Z,0.77
2023-04-05T11:15:50.294Z,1.20
2023-04-05T11:21:09.274Z,0.70
2023-04-05T11:26:14.900Z,0.80
2023-04-05T11:31:23.722Z,1.17
2023-04-05T11:36:35.137Z,0.90
2023-04-05T11:41:40.855Z,0.60
2023-04-05T11:46:48.254Z,1.33
2023-04-05T11:51:54.961Z,0.80
2023-04-05T11:57:00.929Z,1.00
2023-04-05T12:02:09.177Z,1.47
2023-04-05T12:07:17.468Z,0.87
2023-04-05T12:12:25.350Z,0.93
2023-04-05T12:17:42.577Z,0.90
2023-04-05T12:22:49.689Z,0.87
2023-04-05T12:27:55.494Z,0.90
2023-04-05T12:33:03.412Z,1.00
2023-04-05T12:38:10.617Z,1.23
2023-04-05T12:43:17.689Z,2.00
2023-04-05T12:48:27.063Z,1.63
2023-04-05T12:53:34.212Z,1.37
2023-04-05T12:58:40.427Z,2.33
2023-04-05T13:03:48.324Z,2.40
2023-04-05T13:08:53.643Z,2.10
2023-04-05T13:13:59.419Z,2.33
2023-04-05T13:19:04.930Z,2.27
2023-04-05T13:24:12.774Z,2.70
2023-04-05T13:29:17.973Z,2.80
2023-04-05T13:34:23.602Z,2.70
2023-04-05T13:39:29.178Z,2.57
2023-04-05T13:44:34.864Z,2.73
2023-04-05T13:49:40.390Z,2.23
2023-04-05T13:54:45.855Z,2.60
2023-04-05T13:59:51.426Z,2.33
2023-04-05T14:04:57.082Z,1.90
2023-04-05T14:10:02.785Z,2.23
2023-04-05T14:15:09.092Z,2.50
2023-04-05T14:20:14.680Z,2.57
2023-04-05T14:25:21.750Z,2.47
2023-04-05T14:30:27.566Z,2.57
2023-04-05T14:35:33.102Z,2.60
2023-04-05T14:40:39.249Z,2.23
2023-04-05T14:45:46.601Z,2.20
2023-04-05T14:50:52.189Z,2.40
2023-04-05T14:55:57.899Z,2.07
2023-04-05T15:01:03.695Z,2.27
2023-04-05T15:06:09.213Z,2.40
2023-04-05T15:11:14.875Z,2.30
2023-04-05T15:16:20.742Z,1.53
2023-04-05T15:21:27.069Z,2.23
2023-04-05T15:26:32.552Z,2.20
2023-04-05T15:31:38.113Z,1.77
2023-04-05T15:36:43.636Z,2.00
2023-04-05T15:41:49.608Z,2.23
2023-04-05T15:47:05.013Z,1.63
2023-04-05T15:52:11.869Z,1.50
2023-04-05T15:57:17.367Z,1.70
2023-04-05T16:02:22.970Z,1.83
2023-04-05T16:07:28.497Z,1.57
2023-04-05T16:12:34.385Z,1.70
2023-04-05T16:17:39.833Z,2.00
2023-04-05T16:22:46.373Z,1.87
2023-04-05T16:27:52.215Z,1.50
2023-04-05T16:32:59.231Z,1.70
2023-04-05T16:38:07.566Z,2.60
2023-04-05T16:43:13.753Z,3.53
2023-04-05T16:48:19.350Z,2.30
2023-04-05T16:53:26.151Z,2.33
2023-04-05T16:58:31.692Z,1.90
2023-04-05T17:03:37.290Z,2.60
2023-04-05T17:08:42.923Z,3.30
2023-04-05T17:13:48.587Z,4.13
2023-04-05T17:18:54.272Z,4.87
2023-04-05T17:23:59.714Z,5.70
2023-04-05T17:29:05.694Z,5.43
2023-04-05T17:34:13.476Z,4.30
2023-04-05T17:39:19.056Z,1.60
2023-04-05T17:44:24.488Z,1.50
2023-04-05T17:49:30.638Z,1.17
2023-04-05T17:54:37.840Z,1.07
2023-04-05T17:59:43.859Z,1.00
2023-04-05T18:04:50.035Z,1.33
2023-04-05T18:09:55.743Z,1.77
2023-04-05T18:15:01.195Z,1.40
2023-04-05T18:20:07.836Z,2.00
2023-04-05T18:25:13.604Z,2.20
2023-04-05T18:30:19.093Z,2.93
2023-04-05T18:35:24.585Z,1.90
2023-04-05T18:40:30.084Z,1.77
2023-04-05T18:45:40.008Z,1.17
2023-04-05T18:50:46.011Z,2.10
2023-04-05T18:55:54.921Z,1.70
2023-04-05T19:01:04.367Z,1.60
2023-04-05T19:06:12.571Z,1.60
2023-04-05T19:11:18.966Z,2.83
2023-04-05T19:16:24.761Z,1.63
2023-04-05T19:21:31.084Z,1.83
2023-04-05T19:26:37.714Z,1.43
2023-04-05T19:31:43.304Z,1.53
2023-04-05T19:36:49.418Z,1.07
2023-04-05T19:41:54.942Z,1.77
2023-04-05T19:47:01.521Z,1.70
2023-04-05T19:52:09.562Z,2.37
2023-04-05T19:57:18.092Z,2.80
2023-04-05T20:02:29.358Z,1.80
2023-04-05T20:07:36.573Z,2.23
2023-04-05T20:12:42.072Z,2.30
2023-04-05T20:17:50.416Z,2.27
2023-04-05T20:22:56.114Z,2.23
2023-04-05T20:28:01.651Z,2.43
2023-04-05T20:33:10.332Z,2.30
2023-04-05T20:38:16.087Z,2.07
2023-04-05T20:43:21.546Z,2.00
2023-04-05T20:48:27.410Z,2.60
2023-04-05T20:53:33.430Z,1.57
2023-04-05T20:58:40.212Z,1.67
2023-04-05T21:03:45.756Z,1.70
2023-04-05T21:08:51.478Z,1.43
2023-04-05T21:13:56.906Z,2.00
2023-04-05T21:19:02.409Z,1.93
2023-04-05T21:24:08.571Z,2.10
2023-04-05T21:29:14.685Z,2.23
2023-04-05T21:34:20.191Z,1.87
2023-04-05T21:39:25.620Z,1.80
2023-04-05T21:44:31.070Z,2.00
2023-04-05T21:49:36.646Z,1.90
2023-04-05T21:54:42.517Z,1.67
2023-04-05T21:59:48.070Z,1.93
2023-04-05T22:04:53.824Z,1.93
2023-04-05T22:09:59.674Z,1.73
2023-04-05T22:15:06.104Z,1.80
2023-04-05T22:20:12.513Z,1.83
2023-04-05T22:25:18.222Z,1.70
2023-04-05T22:30:23.795Z,2.30
2023-04-05T22:35:29.309Z,2.37
2023-04-05T22:40:34.928Z,2.27
2023-04-05T22:45:40.805Z,2.20
2023-04-05T22:50:46.410Z,2.00
2023-04-05T22:55:52.447Z,1.80
2023-04-05T23:00:57.970Z,2.10
2023-04-05T23:06:03.484Z,2.03
2023-04-05T23:11:08.971Z,2.17
2023-04-05T23:16:14.495Z,2.00
2023-04-05T23:21:20.043Z,3.77
2023-04-05T23:26:25.644Z,3.37
2023-04-05T23:31:31.219Z,2.90
2023-04-05T23:36:36.885Z,3.80
2023-04-05T23:41:42.298Z,3.40
2023-04-05T23:46:47.883Z,4.00
2023-04-05T23:51:53.667Z,3.87
2023-04-05T23:56:59.243Z,2.93
